FYWH/WDH METAR and TAF weather

Enter ICAO airport designator
Station Type Date Time Source
FYWH METAR 2020/07/03 12:00 UTC NOAA

FYWH 031200Z 09013KT CAVOK 21/M03 Q1029 NOSIG


Station Type Date Time Source
FYWH Decoded METAR 2020/07/03 12:00 UTC NOAA

J. G. Strijdom, Namibia (FYWH) 22-29S 017-28E 1700M
Jul 03, 2020 - 08:00 AM EDT / 2020.07.03 1200 UTC
Wind: from the E (090 degrees) at 15 MPH (13 KT):0
Visibility: greater than 7 mile(s):0
Temperature: 69 F (21 C)
Dew Point: 26 F (-3 C)
Relative Humidity: 19%
Pressure (altimeter): 30.39 in. Hg (1029 hPa)
ob: FYWH 031200Z 09013KT CAVOK 21/M03 Q1029 NOSIG
cycle: 12

Station Type Date Time Source
FYWH TAF 2020/07/03 18:30 UTC NOAA

TAF FYWH 031600Z 0318/0418 11007KT CAVOK
BECMG 0319/0321 25005KT
BECMG 0409/0411 05015KT

Example: see airport list